Time;durP1;ratioP1;P1;durP2;ratioP2;P2;SDS_P1;SDS_P2;PMS_P1;PMS_P2;Temp;Humidity;BMP_temperature;BMP_pressure;BME280_temperature;BME280_humidity;BME280_pressure;Samples;Min_cycle;Max_cycle;Signal;HPM_P1;HPM_P2
2022/10/09 00:01:58;;;;;;;17.38;7.22;;;;;;;8.85;69.48;99972.28;5160878;28;20061;-70
2022/10/09 00:04:48;;;;;;;11.18;6.32;;;;;;;9.08;69.95;99978.56;5153859;28;20062;-70
2022/10/09 00:07:38;;;;;;;11.40;6.63;;;;;;;8.96;68.76;99977.63;5127431;28;20059;-70
2022/10/09 00:10:29;;;;;;;10.60;6.28;;;;;;;8.75;70.11;99974.72;5156500;28;20413;-70
2022/10/09 00:13:19;;;;;;;14.20;6.57;;;;;;;8.80;69.44;99964.66;5142204;28;20059;-70
2022/10/09 00:16:12;;;;;;;11.43;6.15;;;;;;;8.98;68.83;99969.63;5142304;28;20557;-70
2022/10/09 00:19:02;;;;;;;10.30;6.10;;;;;;;9.07;69.40;99975.09;5158493;28;20050;-70
2022/10/09 00:21:52;;;;;;;13.70;6.20;;;;;;;8.83;69.07;99959.16;5157157;28;20546;-70
2022/10/09 00:24:42;;;;;;;12.68;5.93;;;;;;;8.79;69.25;99970.91;5147865;28;20093;-70
2022/10/09 00:27:32;;;;;;;9.10;5.60;;;;;;;8.98;68.70;99974.91;5150177;28;20058;-70
2022/10/09 00:30:23;;;;;;;16.50;6.47;;;;;;;8.84;68.84;99968.81;5142731;28;20082;-70
2022/10/09 00:33:13;;;;;;;15.00;6.30;;;;;;;8.74;68.72;99970.41;5156833;28;20528;-71
2022/10/09 00:36:06;;;;;;;10.73;6.07;;;;;;;8.75;69.02;99971.25;5145017;28;20085;-70
2022/10/09 00:38:56;;;;;;;11.20;6.15;;;;;;;8.63;69.53;99960.56;5149066;28;20343;-70
2022/10/09 00:41:46;;;;;;;12.27;6.43;;;;;;;8.70;68.90;99963.63;5157195;28;20425;-70
2022/10/09 00:44:56;;;;;;;10.15;6.30;;;;;;;8.31;70.38;99973.34;5156371;28;20181;-70
2022/10/09 00:47:49;;;;;;;14.85;6.22;;;;;;;8.30;70.03;99950.50;5156338;28;20189;-70
2022/10/09 00:50:43;;;;;;;13.13;6.80;;;;;;;8.63;70.17;99957.06;5150279;28;20169;-71
2022/10/09 00:53:34;;;;;;;10.43;6.38;;;;;;;8.59;69.57;99953.81;5153313;28;20074;-70
2022/10/09 00:56:24;;;;;;;9.27;5.72;;;;;;;8.45;70.24;99960.06;5163181;28;20134;-70
2022/10/09 00:59:16;;;;;;;14.90;6.97;;;;;;;8.52;70.18;99941.13;5154124;28;20505;-70
2022/10/09 01:02:07;;;;;;;10.38;6.18;;;;;;;8.52;70.05;99957.00;5146408;28;20074;-70
2022/10/09 01:04:57;;;;;;;12.38;6.13;;;;;;;8.28;69.63;99962.13;5164991;28;20252;-70
2022/10/09 01:07:55;;;;;;;10.07;6.63;;;;;;;8.18;70.71;99944.28;5158515;28;20152;-70
2022/10/09 01:10:58;;;;;;;8.02;5.40;;;;;;;8.32;69.41;99951.25;5145098;28;20061;-70
2022/10/09 01:14:15;;;;;;;11.15;5.38;;;;;;;8.06;69.39;99944.28;5149224;28;20506;-69
2022/10/09 01:17:30;;;;;;;9.90;5.68;;;;;;;8.14;70.50;99947.22;5145074;28;20086;-70
2022/10/09 01:20:29;;;;;;;11.10;6.40;;;;;;;8.21;69.80;99945.84;5145340;28;20050;-70
2022/10/09 01:23:31;;;;;;;13.68;6.13;;;;;;;8.04;69.33;99944.38;5154173;28;20105;-70
2022/10/09 01:26:46;;;;;;;14.32;6.13;;;;;;;8.07;69.76;99943.31;5160951;28;20443;-69
2022/10/09 01:29:47;;;;;;;12.38;6.20;;;;;;;8.23;70.16;99938.69;5158959;28;20058;-70
2022/10/09 01:32:42;;;;;;;10.57;5.75;;;;;;;8.19;69.23;99938.03;5163753;28;20058;-70
2022/10/09 01:35:33;;;;;;;11.07;6.20;;;;;;;8.17;69.64;99933.81;5153577;28;20428;-70
2022/10/09 01:38:24;;;;;;;14.75;6.50;;;;;;;7.88;70.17;99934.03;5145178;28;20532;-70
2022/10/09 01:41:15;;;;;;;13.18;6.38;;;;;;;7.84;69.02;99910.53;5147270;28;20474;-70
2022/10/09 01:44:34;;;;;;;15.85;5.93;;;;;;;7.79;69.94;99929.34;5144590;28;20086;-70
2022/10/09 01:47:25;;;;;;;12.45;5.97;;;;;;;7.86;70.05;99928.00;5150409;28;20105;-69
2022/10/09 01:50:26;;;;;;;11.18;5.82;;;;;;;7.79;69.19;99918.78;5147668;28;20061;-69
2022/10/09 01:53:19;;;;;;;12.25;5.60;;;;;;;7.66;69.65;99921.41;5148015;28;20061;-70
2022/10/09 01:56:20;;;;;;;10.07;5.50;;;;;;;7.64;68.85;99906.63;5163552;28;20158;-69
2022/10/09 01:59:13;;;;;;;14.70;6.13;;;;;;;7.53;69.53;99912.63;5143926;28;20069;-69
2022/10/09 02:02:06;;;;;;;9.27;5.32;;;;;;;7.74;69.54;99908.53;5159896;28;20436;-69
2022/10/09 02:04:57;;;;;;;8.63;5.70;;;;;;;7.50;70.27;99882.00;5144333;28;20200;-70
2022/10/09 02:07:48;;;;;;;9.48;6.03;;;;;;;7.69;69.54;99893.97;5129409;28;20062;-70
2022/10/09 02:10:39;;;;;;;9.00;5.63;;;;;;;7.72;69.04;99893.75;5155657;28;20077;-70
2022/10/09 02:13:31;;;;;;;8.50;6.07;;;;;;;7.65;69.79;99892.47;5152936;28;20065;-70
2022/10/09 02:16:34;;;;;;;11.90;6.30;;;;;;;7.34;70.78;99878.69;5162830;28;20069;-70
2022/10/09 02:19:42;;;;;;;11.23;6.45;;;;;;;7.75;69.71;99890.91;5143560;28;20152;-70
2022/10/09 02:22:33;;;;;;;11.32;6.40;;;;;;;7.39;69.95;99895.06;5154371;28;20541;-70
2022/10/09 02:25:23;;;;;;;11.05;6.20;;;;;;;7.42;69.60;99879.03;5145597;28;20098;-70
2022/10/09 02:28:14;;;;;;;13.35;6.07;;;;;;;7.54;69.39;99870.28;5158550;28;20061;-70
2022/10/09 02:31:21;;;;;;;11.95;7.05;;;;;;;7.51;69.34;99883.66;5149115;28;20058;-70
2022/10/09 02:34:17;;;;;;;10.73;5.93;;;;;;;7.69;69.21;99883.41;5151407;28;20051;-71
2022/10/09 02:37:08;;;;;;;12.40;6.80;;;;;;;7.57;70.27;99887.69;5160795;28;20046;-70
2022/10/09 02:39:57;;;;;;;15.23;7.00;;;;;;;7.37;69.97;99875.84;5144317;28;20070;-69
2022/10/09 02:42:48;;;;;;;14.80;6.32;;;;;;;7.30;69.79;99877.19;5155342;28;20303;-69
2022/10/09 02:45:38;;;;;;;13.93;7.60;;;;;;;7.28;70.79;99869.41;5129473;28;20047;-69
2022/10/09 02:48:28;;;;;;;23.25;7.30;;;;;;;7.46;70.78;99882.31;5132881;28;20054;-70
2022/10/09 02:51:19;;;;;;;18.17;7.47;;;;;;;7.59;70.68;99879.69;5152068;28;20182;-71
2022/10/09 02:54:09;;;;;;;21.58;8.52;;;;;;;7.59;71.85;99872.63;5134484;28;20192;-69
2022/10/09 02:56:59;;;;;;;31.33;8.23;;;;;;;7.60;71.98;99882.22;5162664;28;20058;-71
2022/10/09 02:59:49;;;;;;;29.38;8.43;;;;;;;7.62;72.47;99877.69;5149114;28;20165;-71
2022/10/09 03:02:39;;;;;;;28.80;7.85;;;;;;;7.62;72.30;99869.78;5143103;28;20121;-71
2022/10/09 03:05:30;;;;;;;27.38;8.55;;;;;;;7.57;71.80;99877.16;5148062;28;20196;-71
2022/10/09 03:08:20;;;;;;;33.25;8.68;;;;;;;7.71;72.36;99870.94;5159529;28;20070;-69
2022/10/09 03:11:11;;;;;;;48.33;8.32;;;;;;;7.95;71.44;99871.91;5141780;28;20059;-70
2022/10/09 03:14:01;;;;;;;30.85;7.97;;;;;;;7.66;72.75;99873.88;5147383;28;20510;-70
2022/10/09 03:16:51;;;;;;;17.60;8.05;;;;;;;7.71;72.35;99879.69;5154441;28;20051;-71
2022/10/09 03:19:41;;;;;;;16.85;7.57;;;;;;;7.53;72.60;99863.31;5142652;28;20057;-71
2022/10/09 03:22:31;;;;;;;20.85;8.30;;;;;;;7.71;73.83;99873.56;5157283;28;20529;-70
2022/10/09 03:25:22;;;;;;;34.50;8.55;;;;;;;7.81;74.67;99871.16;5151462;28;20432;-71
2022/10/09 03:28:11;;;;;;;28.45;8.80;;;;;;;7.86;74.15;99876.97;5150523;28;20039;-71
2022/10/09 03:31:02;;;;;;;33.67;8.73;;;;;;;7.82;74.49;99876.34;5159634;28;20097;-70
2022/10/09 03:33:53;;;;;;;23.48;8.52;;;;;;;7.86;74.14;99874.34;5146622;28;20050;-70
2022/10/09 03:36:44;;;;;;;24.30;8.20;;;;;;;8.00;72.95;99874.22;5157884;28;20177;-71
2022/10/09 03:39:34;;;;;;;32.72;9.07;;;;;;;7.82;74.46;99878.16;5155269;28;20053;-71
2022/10/09 03:42:24;;;;;;;52.47;15.77;;;;;;;7.86;74.11;99880.47;5144129;28;20055;-71
2022/10/09 03:45:14;;;;;;;44.53;13.90;;;;;;;7.94;73.50;99872.84;5155192;28;20046;-69
2022/10/09 03:48:05;;;;;;;24.85;8.88;;;;;;;7.92;73.49;99876.56;5152881;28;20057;-71
2022/10/09 03:50:55;;;;;;;17.40;8.52;;;;;;;7.96;73.89;99868.31;5159812;28;20061;-71
2022/10/09 03:53:45;;;;;;;34.67;9.48;;;;;;;7.92;73.18;99874.75;5141184;28;20145;-70
2022/10/09 03:56:35;;;;;;;19.60;8.85;;;;;;;7.85;73.86;99865.56;5151717;28;20406;-69
2022/10/09 03:59:26;;;;;;;28.52;9.95;;;;;;;8.02;73.42;99879.41;5147778;28;20054;-71
2022/10/09 04:02:15;;;;;;;13.40;8.25;;;;;;;7.93;72.17;99878.25;5161684;28;20061;-71
2022/10/09 04:05:06;;;;;;;17.83;8.73;;;;;;;7.85;73.84;99884.06;5142417;28;20122;-70
2022/10/09 04:07:56;;;;;;;19.52;8.80;;;;;;;7.94;73.62;99883.41;5152602;28;20513;-71
2022/10/09 04:10:46;;;;;;;23.65;8.68;;;;;;;7.86;72.94;99880.47;5151317;28;20050;-71
2022/10/09 04:13:36;;;;;;;17.08;8.60;;;;;;;7.87;73.38;99884.78;5160914;28;20109;-70
2022/10/09 04:16:26;;;;;;;14.13;8.50;;;;;;;7.95;73.79;99879.00;5132754;28;20050;-71
2022/10/09 04:19:16;;;;;;;62.47;7.90;;;;;;;8.00;74.70;99880.34;5142402;28;20145;-70
2022/10/09 04:22:06;;;;;;;94.68;8.20;;;;;;;8.06;73.18;99875.59;5128672;28;20102;-71
2022/10/09 04:24:56;;;;;;;73.40;7.93;;;;;;;7.97;72.69;99883.19;5162173;28;20057;-70
2022/10/09 04:27:46;;;;;;;47.08;7.68;;;;;;;7.97;72.63;99869.16;5152236;28;20050;-72
2022/10/09 04:30:36;;;;;;;48.97;6.88;;;;;;;7.94;74.35;99879.91;5158076;28;20062;-71
2022/10/09 04:33:26;;;;;;;59.85;7.80;;;;;;;7.84;73.52;99881.50;5148638;28;20129;-71
2022/10/09 04:36:17;;;;;;;46.25;6.78;;;;;;;7.92;73.84;99885.31;5145717;28;20058;-72
2022/10/09 04:39:07;;;;;;;31.10;7.05;;;;;;;7.98;74.02;99884.91;5162222;28;20116;-71
2022/10/09 04:41:57;;;;;;;44.95;7.72;;;;;;;7.86;72.82;99883.09;5163762;28;20151;-71
2022/10/09 04:44:47;;;;;;;46.10;7.68;;;;;;;7.87;73.86;99882.13;5157909;28;20061;-71
2022/10/09 04:47:37;;;;;;;114.47;7.85;;;;;;;7.89;72.79;99876.78;5144856;28;20421;-71
2022/10/09 04:50:27;;;;;;;103.95;8.65;;;;;;;7.49;76.16;99877.66;5159099;28;20429;-72
2022/10/09 04:53:20;;;;;;;39.58;7.07;;;;;;;7.75;73.78;99875.06;5159832;28;20560;-72
2022/10/09 04:56:13;;;;;;;36.22;7.40;;;;;;;7.79;73.51;99879.19;5156944;28;20061;-71
2022/10/09 04:59:03;;;;;;;16.80;6.68;;;;;;;7.85;73.13;99873.50;5151503;28;20070;-71
2022/10/09 05:01:57;;;;;;;23.15;7.30;;;;;;;7.93;73.55;99868.53;5145843;28;20497;-72
2022/10/09 05:04:47;;;;;;;45.28;6.80;;;;;;;7.92;73.38;99871.28;5160801;28;20061;-72
2022/10/09 05:07:37;;;;;;;63.72;7.22;;;;;;;7.91;74.25;99870.44;5148266;28;20532;-72
2022/10/09 05:10:27;;;;;;;72.22;7.45;;;;;;;7.93;74.19;99876.44;5160562;28;20081;-71
2022/10/09 05:13:17;;;;;;;56.17;7.00;;;;;;;7.85;74.79;99881.41;5159875;28;20042;-72
2022/10/09 05:16:17;;;;;;;98.78;7.43;;;;;;;7.94;73.05;99875.47;5155950;28;20055;-71
2022/10/09 05:19:07;;;;;;;69.60;6.82;;;;;;;7.92;73.36;99872.13;5147240;28;20528;-72
2022/10/09 05:22:00;;;;;;;31.23;5.53;;;;;;;7.82;73.35;99872.88;5152589;28;20066;-71
2022/10/09 05:24:50;;;;;;;27.93;6.00;;;;;;;7.33;73.38;99860.31;5164353;28;20073;-71
2022/10/09 05:27:40;;;;;;;22.30;5.38;;;;;;;7.49;73.59;99875.03;5145848;28;20537;-72
2022/10/09 05:30:30;;;;;;;27.17;5.43;;;;;;;7.50;73.34;99876.72;5164073;28;20057;-71
2022/10/09 05:33:21;;;;;;;51.58;6.53;;;;;;;7.53;73.34;99876.50;5159591;28;20102;-72
2022/10/09 05:36:11;;;;;;;43.00;6.03;;;;;;;7.39;73.11;99850.22;5144770;28;20444;-71
2022/10/09 05:39:02;;;;;;;104.70;7.20;;;;;;;7.70;74.10;99877.16;5161232;28;20058;-70
2022/10/09 05:41:52;;;;;;;76.88;6.80;;;;;;;7.53;74.68;99875.66;5158788;28;20054;-70
2022/10/09 05:44:42;;;;;;;80.25;7.25;;;;;;;7.48;73.88;99876.00;5144493;28;20058;-71
2022/10/09 05:47:32;;;;;;;20.30;5.75;;;;;;;7.49;73.38;99874.19;5163655;28;20481;-70
2022/10/09 05:50:22;;;;;;;24.48;6.60;;;;;;;7.50;74.33;99865.31;5151288;28;20121;-70
2022/10/09 05:53:12;;;;;;;18.25;6.22;;;;;;;7.66;73.50;99859.84;5146526;28;20050;-70
2022/10/09 05:56:14;;;;;;;26.00;6.78;;;;;;;7.71;74.66;99863.84;5163979;28;20054;-70
2022/10/09 05:59:10;;;;;;;62.88;6.88;;;;;;;7.75;73.78;99867.16;5151874;28;20082;-71
2022/10/09 06:02:00;;;;;;;100.45;7.07;;;;;;;7.35;74.14;99866.31;5142389;28;20061;-71
2022/10/09 06:04:50;;;;;;;67.75;6.97;;;;;;;7.45;76.07;99851.56;5158602;28;20053;-71
2022/10/09 06:07:40;;;;;;;17.45;6.78;;;;;;;7.75;74.11;99865.34;5149692;28;20430;-71
2022/10/09 06:10:31;;;;;;;16.52;6.55;;;;;;;7.79;72.61;99859.88;5155586;28;20061;-71
2022/10/09 06:13:22;;;;;;;57.92;6.65;;;;;;;7.91;72.81;99875.72;5163222;28;20057;-71
2022/10/09 06:16:14;;;;;;;52.58;7.00;;;;;;;7.78;73.42;99866.91;5163411;28;20070;-71
2022/10/09 06:19:06;;;;;;;39.90;7.53;;;;;;;7.74;73.28;99862.81;5147545;28;20181;-71
2022/10/09 06:21:56;;;;;;;34.28;7.43;;;;;;;7.90;73.17;99875.81;5162692;28;20053;-71
2022/10/09 06:24:46;;;;;;;58.95;7.50;;;;;;;7.93;72.34;99876.44;5162199;28;20542;-71
2022/10/09 06:27:36;;;;;;;67.78;7.55;;;;;;;7.95;73.58;99858.72;5162994;28;20515;-71
2022/10/09 06:30:26;;;;;;;94.47;8.48;;;;;;;7.81;72.79;99871.16;5161452;28;20153;-70
2022/10/09 06:33:16;;;;;;;18.65;7.25;;;;;;;8.07;73.96;99867.56;5158015;28;20545;-71
2022/10/09 06:36:09;;;;;;;19.92;8.18;;;;;;;8.19;73.33;99874.63;5151100;28;20052;-71
2022/10/09 06:39:01;;;;;;;36.47;8.82;;;;;;;8.44;73.28;99873.81;5153726;28;20054;-72
2022/10/09 06:41:51;;;;;;;28.13;9.23;;;;;;;8.33;73.54;99876.31;5151769;28;20425;-70
2022/10/09 06:45:02;;;;;;;36.45;9.27;;;;;;;8.32;73.88;99873.78;5157731;28;20054;-70
2022/10/09 06:47:52;;;;;;;26.20;8.90;;;;;;;8.45;71.94;99874.66;5142862;28;20086;-70
2022/10/09 06:50:42;;;;;;;14.98;9.25;;;;;;;8.42;71.75;99872.22;5157930;28;20365;-72
2022/10/09 06:53:35;;;;;;;16.90;9.13;;;;;;;8.54;72.29;99873.97;5158629;28;20161;-70
2022/10/09 06:56:27;;;;;;;16.90;9.73;;;;;;;8.66;71.60;99882.84;5159822;28;20054;-70
2022/10/09 06:59:17;;;;;;;19.55;10.18;;;;;;;8.41;71.58;99881.94;5146567;28;20417;-71
2022/10/09 07:02:07;;;;;;;20.83;11.70;;;;;;;8.61;71.08;99884.94;5143382;28;20051;-71
2022/10/09 07:04:58;;;;;;;21.60;11.50;;;;;;;8.66;71.70;99875.75;5160864;28;20078;-71
2022/10/09 07:07:48;;;;;;;17.05;10.27;;;;;;;8.85;69.90;99885.00;5142275;28;20050;-71
2022/10/09 07:10:38;;;;;;;15.82;9.15;;;;;;;9.31;68.83;99885.13;5158049;28;20058;-71
2022/10/09 07:13:28;;;;;;;15.00;9.40;;;;;;;9.59;69.20;99886.53;5161460;28;20108;-71
2022/10/09 07:16:21;;;;;;;13.60;9.27;;;;;;;9.92;66.81;99890.22;5162316;28;20056;-71
2022/10/09 07:19:13;;;;;;;12.73;8.30;;;;;;;10.58;66.28;99885.13;5157960;28;20240;-70
2022/10/09 07:22:03;;;;;;;11.18;8.38;;;;;;;10.33;65.55;99883.53;5156679;28;20188;-70
2022/10/09 07:24:54;;;;;;;12.55;8.00;;;;;;;10.52;64.99;99882.94;5160168;28;20054;-72
2022/10/09 07:27:45;;;;;;;12.88;7.50;;;;;;;10.91;66.20;99888.69;5143377;28;20547;-72
2022/10/09 07:30:38;;;;;;;13.68;7.72;;;;;;;11.48;63.19;99890.19;5161395;28;20073;-70
2022/10/09 07:33:28;;;;;;;13.82;8.50;;;;;;;11.09;64.08;99889.00;5150310;28;20086;-71
2022/10/09 07:36:19;;;;;;;11.00;7.47;;;;;;;10.62;65.58;99873.28;5142126;28;20628;-71
2022/10/09 07:39:09;;;;;;;13.32;7.53;;;;;;;11.63;63.45;99888.91;5160306;28;20093;-72
2022/10/09 07:42:00;;;;;;;9.90;7.35;;;;;;;12.33;63.31;99883.91;5156503;28;20424;-72
2022/10/09 07:44:50;;;;;;;13.00;9.60;;;;;;;12.72;59.52;99882.22;5148838;28;20054;-74
2022/10/09 07:47:40;;;;;;;11.15;7.22;;;;;;;13.45;59.64;99885.44;5155162;28;20054;-73
2022/10/09 07:50:33;;;;;;;9.75;6.47;;;;;;;13.21;59.71;99855.66;5150436;28;20054;-72
2022/10/09 07:53:24;;;;;;;8.15;5.63;;;;;;;13.25;58.13;99857.13;5152997;28;20058;-73
2022/10/09 07:56:20;;;;;;;7.05;5.47;;;;;;;14.15;56.17;99874.53;5149972;28;20052;-73
2022/10/09 07:59:13;;;;;;;7.63;5.78;;;;;;;14.16;57.25;99885.03;5152009;28;20084;-75
2022/10/09 08:02:03;;;;;;;7.97;5.75;;;;;;;15.07;55.68;99876.34;5150740;28;20202;-75
2022/10/09 08:04:53;;;;;;;9.20;5.13;;;;;;;14.38;55.27;99861.66;5151522;28;20046;-73
2022/10/09 08:07:43;;;;;;;9.52;5.35;;;;;;;15.59;55.51;99869.31;5149130;28;20047;-74
2022/10/09 08:10:33;;;;;;;14.02;5.18;;;;;;;15.37;53.90;99862.63;5143995;28;20070;-73
2022/10/09 08:13:24;;;;;;;7.78;4.88;;;;;;;15.25;54.60;99864.66;5147343;28;20057;-72
2022/10/09 08:16:15;;;;;;;6.80;4.47;;;;;;;15.45;55.30;99865.34;5150027;28;20140;-75
2022/10/09 08:19:05;;;;;;;7.13;5.10;;;;;;;15.20;55.25;99866.13;5142340;28;20062;-75
2022/10/09 08:21:55;;;;;;;5.25;4.47;;;;;;;15.47;56.02;99866.03;5146129;28;20086;-71
2022/10/09 08:24:52;;;;;;;6.20;4.60;;;;;;;16.27;53.72;99857.94;5158451;28;20430;-74
2022/10/09 08:27:42;;;;;;;8.52;4.72;;;;;;;16.74;53.23;99854.78;5153770;28;20057;-74
2022/10/09 08:30:32;;;;;;;6.43;4.47;;;;;;;15.28;54.41;99859.03;5151820;28;20165;-73
2022/10/09 08:33:23;;;;;;;5.60;4.57;;;;;;;16.60;51.62;99848.22;5150152;28;20057;-75
2022/10/09 08:36:14;;;;;;;5.70;4.53;;;;;;;17.14;51.54;99840.66;5133168;28;20113;-74
2022/10/09 08:39:04;;;;;;;7.30;5.35;;;;;;;17.00;50.91;99843.16;5152715;28;20061;-74
2022/10/09 08:41:56;;;;;;;7.70;5.28;;;;;;;15.89;54.76;99841.34;5154728;28;20062;-74
2022/10/09 08:44:48;;;;;;;7.22;4.80;;;;;;;15.01;57.39;99851.09;5150082;28;20053;-75
2022/10/09 08:47:47;;;;;;;7.80;4.68;;;;;;;15.79;54.94;99840.56;5151719;28;20517;-74
2022/10/09 08:50:43;;;;;;;6.95;4.90;;;;;;;15.88;54.56;99839.63;5154424;28;20097;-75
2022/10/09 08:53:49;;;;;;;6.45;4.93;;;;;;;17.07;52.07;99839.66;5154817;28;20047;-74
2022/10/09 08:56:39;;;;;;;6.75;4.95;;;;;;;18.29;51.34;99827.19;5154033;28;20054;-74
2022/10/09 08:59:30;;;;;;;6.82;4.65;;;;;;;17.38;52.19;99830.97;5150867;28;20509;-75
2022/10/09 09:02:30;;;;;;;8.52;4.43;;;;;;;18.12;52.37;99812.97;5152565;28;20501;-74
2022/10/09 09:05:23;;;;;;;7.45;4.82;;;;;;;18.81;50.03;99821.28;5151458;28;20109;-75
2022/10/09 09:08:33;;;;;;;6.97;5.03;;;;;;;19.23;48.98;99815.41;5152104;28;20127;-74
2022/10/09 09:11:58;;;;;;;7.65;4.40;;;;;;;19.53;49.12;99814.69;5155605;28;20060;-71
2022/10/09 09:15:07;;;;;;;6.50;4.43;;;;;;;19.29;49.70;99819.25;5155570;28;20049;-72
2022/10/09 09:18:16;;;;;;;6.45;4.18;;;;;;;19.27;48.32;99815.94;5152540;28;20379;-72
2022/10/09 09:21:06;;;;;;;6.63;4.07;;;;;;;20.01;47.94;99808.03;5155774;28;20101;-69
2022/10/09 09:23:59;;;;;;;22.52;15.30;;;;;;;19.04;47.38;99810.53;5154222;28;20141;-69
2022/10/09 09:26:54;;;;;;;10.07;7.05;;;;;;;20.11;46.60;99797.81;5127367;28;20054;-70
2022/10/09 09:30:00;;;;;;;7.68;4.57;;;;;;;20.19;45.90;99792.31;5152180;28;20061;-71
2022/10/09 09:33:19;;;;;;;6.38;4.07;;;;;;;19.88;47.48;99797.06;5155112;28;20188;-72
2022/10/09 09:36:15;;;;;;;5.22;3.10;;;;;;;20.09;45.42;99797.16;5159441;28;20054;-72
2022/10/09 09:39:05;;;;;;;7.20;3.80;;;;;;;19.88;48.24;99789.00;5150610;28;20057;-72
2022/10/09 09:42:18;;;;;;;7.72;3.72;;;;;;;20.14;46.30;99767.00;5153874;28;20102;-73
2022/10/09 09:45:18;;;;;;;6.95;3.70;;;;;;;21.08;46.02;99773.28;5152193;28;20047;-71
2022/10/09 09:48:15;;;;;;;6.10;3.10;;;;;;;20.83;44.01;99774.69;5158945;28;20101;-71
2022/10/09 09:51:13;;;;;;;7.65;3.35;;;;;;;21.26;43.79;99770.13;5155572;28;20057;-71
2022/10/09 09:54:21;;;;;;;5.28;3.13;;;;;;;21.85;44.19;99762.69;5127561;28;20135;-72
2022/10/09 09:57:23;;;;;;;6.30;2.78;;;;;;;21.69;40.58;99743.09;5150351;28;20432;-72
2022/10/09 10:00:20;;;;;;;7.03;2.72;;;;;;;22.11;42.32;99745.81;5146991;28;20047;-71
2022/10/09 10:03:13;;;;;;;5.68;2.05;;;;;;;22.38;41.38;99735.97;5149373;28;20145;-71
2022/10/09 10:06:19;;;;;;;6.25;2.00;;;;;;;22.26;38.23;99733.88;5145131;28;20085;-71
2022/10/09 10:09:17;;;;;;;3.97;2.47;;;;;;;22.58;40.00;99736.88;5146015;28;20126;-70
2022/10/09 10:12:14;;;;;;;4.38;1.55;;;;;;;;;;5168108;28;20132;-69
2022/10/09 10:15:05;;;;;;;3.58;1.70;;;;;;;22.48;38.54;99721.06;5164115;28;20054;-70
2022/10/09 10:18:00;;;;;;;7.18;2.22;;;;;;;22.49;38.35;99725.44;5145977;28;20051;-68
2022/10/09 10:21:01;;;;;;;4.57;2.00;;;;;;;21.97;39.33;99701.72;5156672;28;20074;-71
2022/10/09 10:24:08;;;;;;;5.85;1.55;;;;;;;22.07;38.89;99717.56;5155996;28;20058;-71
2022/10/09 10:27:12;;;;;;;4.60;1.80;;;;;;;22.07;39.35;99690.53;5158487;28;20062;-68
2022/10/09 10:30:06;;;;;;;5.63;1.42;;;;;;;20.96;38.67;99710.13;5155571;28;20054;-72
2022/10/09 10:33:17;;;;;;;4.18;1.40;;;;;;;20.00;41.88;99687.94;5166932;28;20059;-70
2022/10/09 10:36:09;;;;;;;3.20;1.50;;;;;;;20.27;41.16;99705.22;5154229;28;20130;-68
2022/10/09 10:39:11;;;;;;;5.38;1.52;;;;;;;19.91;42.07;99694.44;5154492;28;20048;-70
2022/10/09 10:42:04;;;;;;;2.35;1.33;;;;;;;19.82;42.36;99680.22;5149555;28;20062;-69
2022/10/09 10:45:04;;;;;;;3.10;1.33;;;;;;;19.85;42.14;99687.09;5144104;28;20759;-69
2022/10/09 10:47:57;;;;;;;4.25;1.23;;;;;;;19.93;42.23;99669.00;5154579;28;20085;-69
2022/10/09 10:50:57;;;;;;;1.90;1.27;;;;;;;19.83;41.91;99675.66;5155076;28;20073;-69
2022/10/09 10:53:59;;;;;;;4.95;1.20;;;;;;;20.38;41.74;99679.66;5160477;28;20050;-69
2022/10/09 10:57:09;;;;;;;7.45;1.30;;;;;;;20.24;40.20;99675.16;5152457;28;20078;-69
2022/10/09 11:00:09;;;;;;;3.22;1.52;;;;;;;20.52;42.03;99669.88;5150840;28;20061;-69
2022/10/09 11:03:26;;;;;;;3.20;1.25;;;;;;;20.03;41.25;99671.38;5155666;28;20078;-70
2022/10/09 11:06:40;;;;;;;3.80;1.23;;;;;;;19.60;40.61;99668.53;5146460;28;20054;-69
2022/10/09 11:09:49;;;;;;;;;;;;;;;19.52;42.34;99663.22;5161580;28;20441;-69
2022/10/09 11:12:48;;;;;;;2.72;1.33;;;;;;;19.54;42.24;99660.38;5152403;28;19933;-69
2022/10/09 11:15:54;;;;;;;4.05;1.30;;;;;;;19.83;40.63;99649.59;5155319;28;20089;-68
2022/10/09 11:19:15;;;;;;;3.85;1.40;;;;;;;19.48;42.13;99653.88;5160110;28;20076;-70
2022/10/09 11:22:15;;;;;;;3.50;1.52;;;;;;;19.80;41.46;99650.00;5157969;28;20054;-68
2022/10/09 11:25:16;;;;;;;3.72;1.20;;;;;;;19.53;41.68;99646.06;5154792;28;20120;-69
2022/10/09 11:28:25;;;;;;;2.80;1.30;;;;;;;19.34;42.60;99643.94;5127656;28;20057;-71
2022/10/09 11:31:26;;;;;;;2.67;1.23;;;;;;;19.47;43.20;99638.75;5150078;28;20062;-69
2022/10/09 11:34:23;;;;;;;3.25;1.30;;;;;;;19.40;42.09;99632.44;5143888;28;20053;-69
2022/10/09 11:37:21;;;;;;;3.63;1.23;;;;;;;19.43;43.58;99618.59;5160932;28;20053;-72
2022/10/09 11:40:15;;;;;;;1.58;1.10;;;;;;;20.09;42.17;99618.63;5141817;28;20062;-70
2022/10/09 11:43:24;;;;;;;3.33;1.30;;;;;;;19.90;42.53;99615.56;5155233;28;20062;-71
2022/10/09 11:46:19;;;;;;;2.30;1.30;;;;;;;20.27;42.42;99613.69;5144884;28;20054;-68
2022/10/09 11:49:22;;;;;;;4.72;1.05;;;;;;;20.38;40.98;99601.56;5149916;28;20133;-69
2022/10/09 11:52:30;;;;;;;4.45;1.05;;;;;;;20.42;40.42;99592.88;5159580;28;20046;-68
2022/10/09 11:55:26;;;;;;;2.67;0.85;;;;;;;20.11;42.40;99595.06;5148408;28;20509;-68
2022/10/09 11:58:23;;;;;;;2.72;0.98;;;;;;;19.56;42.15;99583.81;5145603;28;20053;-70
2022/10/09 12:01:22;;;;;;;5.90;1.65;;;;;;;20.00;41.98;99564.09;5160546;28;20053;-68
2022/10/09 12:04:12;;;;;;;3.75;1.17;;;;;;;20.33;41.69;99571.66;5145225;28;20046;-68
2022/10/09 12:07:08;;;;;;;1.80;0.98;;;;;;;20.36;41.56;99571.28;5141766;28;20536;-69
2022/10/09 12:10:06;;;;;;;2.70;0.95;;;;;;;20.15;41.82;99550.56;5156357;28;20094;-69
2022/10/09 12:13:01;;;;;;;3.78;1.20;;;;;;;19.79;42.12;99562.19;5148353;28;20161;-68
2022/10/09 12:15:55;;;;;;;4.10;1.20;;;;;;;19.13;42.13;99540.66;5157428;28;20196;-69
2022/10/09 12:18:46;;;;;;;3.60;1.10;;;;;;;19.57;42.09;99545.16;5152549;28;20081;-68
2022/10/09 12:21:43;;;;;;;3.17;1.15;;;;;;;20.18;40.21;99542.94;5144127;28;20435;-69
2022/10/09 12:24:40;;;;;;;3.85;0.98;;;;;;;20.07;40.77;99543.47;5141544;28;20125;-69
2022/10/09 12:27:35;;;;;;;4.35;1.40;;;;;;;19.79;42.40;99534.47;5143964;28;20054;-69
2022/10/09 12:30:33;;;;;;;4.03;1.45;;;;;;;19.70;41.71;99526.53;5147299;28;20061;-68
2022/10/09 12:33:46;;;;;;;4.68;1.20;;;;;;;19.14;42.71;99523.50;5146827;28;20063;-68
2022/10/09 12:36:36;;;;;;;4.78;1.10;;;;;;;19.94;42.86;99524.50;5143941;28;20057;-68
2022/10/09 12:39:27;;;;;;;6.25;1.38;;;;;;;19.45;42.30;99517.91;5167880;28;20050;-72
2022/10/09 12:42:23;;;;;;;2.85;1.00;;;;;;;19.40;42.32;99519.47;5148269;28;20064;-68
2022/10/09 12:45:16;;;;;;;7.15;1.15;;;;;;;19.46;41.68;99507.97;5155149;28;20077;-67
2022/10/09 12:48:12;;;;;;;7.70;1.55;;;;;;;19.22;42.02;99511.81;5158941;28;20102;-69
2022/10/09 12:51:16;;;;;;;3.85;1.17;;;;;;;19.34;42.87;99512.19;5164085;28;20065;-69
2022/10/09 12:54:09;;;;;;;3.60;1.08;;;;;;;19.38;41.63;99506.25;5151996;28;20204;-71
2022/10/09 12:57:00;;;;;;;2.90;1.10;;;;;;;19.24;41.89;99510.63;5159888;28;20130;-69
2022/10/09 12:59:50;;;;;;;3.70;1.35;;;;;;;19.03;42.55;99494.41;5136029;28;20065;-69
2022/10/09 13:02:41;;;;;;;2.22;1.10;;;;;;;18.83;41.73;99490.63;5156865;28;20169;-69
2022/10/09 13:05:40;;;;;;;3.20;1.10;;;;;;;18.74;41.47;99479.97;5145225;28;20101;-69
2022/10/09 13:08:40;;;;;;;9.13;1.58;;;;;;;18.47;43.67;99478.69;5135823;28;20055;-69
2022/10/09 13:11:39;;;;;;;4.63;1.98;;;;;;;18.68;43.90;99483.34;5152209;28;20054;-69
2022/10/09 13:14:40;;;;;;;4.35;1.30;;;;;;;18.91;43.28;99477.09;5154456;28;20126;-69
2022/10/09 13:17:39;;;;;;;4.65;1.63;;;;;;;19.22;41.93;99468.81;5153376;28;20074;-69
2022/10/09 13:20:31;;;;;;;3.70;1.20;;;;;;;19.38;41.92;99468.59;5154774;28;20094;-68
2022/10/09 13:23:31;;;;;;;3.92;1.08;;;;;;;18.98;43.02;99457.34;5139222;28;20050;-68
2022/10/09 13:26:27;;;;;;;3.53;0.85;;;;;;;19.21;42.65;99465.28;5155504;28;20062;-68
2022/10/09 13:29:17;;;;;;;2.33;0.90;;;;;;;18.92;43.12;99457.25;5150576;28;20074;-69
2022/10/09 13:32:11;;;;;;;4.70;1.20;;;;;;;18.63;41.67;99464.25;5158024;28;20113;-68
2022/10/09 13:35:02;;;;;;;5.13;1.00;;;;;;;19.00;42.95;99468.72;5152306;28;20140;-68
2022/10/09 13:37:52;;;;;;;1.20;1.00;;;;;;;18.72;42.08;99462.38;5164658;28;20145;-69
2022/10/09 13:40:43;;;;;;;5.80;1.35;;;;;;;18.49;43.14;99462.41;5149148;28;20152;-71
2022/10/09 13:43:36;;;;;;;4.90;1.25;;;;;;;18.46;42.30;99447.47;5147787;28;20058;-69